Time;durP1;ratioP1;P1;durP2;ratioP2;P2;SDS_P1;SDS_P2;PMS_P1;PMS_P2;Temp;Humidity;BMP_temperature;BMP_pressure;BME280_temperature;BME280_humidity;BME280_pressure;Samples;Min_cycle;Max_cycle;Signal;HPM_P1;HPM_P2
2021/12/14 00:51:32;;;;;;;37.13;25.10;;;;;;;7.74;100.00;101819.91;5691155;23;20052;-71
2021/12/14 00:54:18;;;;;;;38.88;26.20;;;;;;;7.70;100.00;101823.34;4925119;29;20130;-71
2021/12/14 00:57:06;;;;;;;34.65;24.25;;;;;;;7.77;100.00;101823.47;4937341;29;20035;-71
2021/12/14 00:59:52;;;;;;;35.20;23.30;;;;;;;7.91;100.00;101829.69;4925057;29;20024;-72
2021/12/14 01:02:38;;;;;;;30.27;20.83;;;;;;;7.81;100.00;101832.19;4923955;29;20456;-72
2021/12/14 01:05:31;;;;;;;29.25;19.63;;;;;;;7.90;100.00;101837.50;4937235;29;20036;-71
2021/12/14 01:08:21;;;;;;;29.00;18.98;;;;;;;7.53;100.00;101838.81;4938777;29;20047;-71
2021/12/14 01:11:13;;;;;;;29.15;18.90;;;;;;;7.39;100.00;101835.13;4937457;29;20031;-70
2021/12/14 01:14:10;;;;;;;28.33;19.27;;;;;;;7.42;100.00;101836.91;4937257;29;20445;-72
2021/12/14 01:17:11;;;;;;;29.80;19.63;;;;;;;7.04;100.00;101832.91;4937615;29;20114;-71
2021/12/14 01:20:00;;;;;;;31.15;20.38;;;;;;;7.17;100.00;101834.81;4925353;29;20083;-72
2021/12/14 01:22:48;;;;;;;28.92;19.60;;;;;;;7.22;100.00;101838.38;4937651;29;20027;-71
2021/12/14 01:25:37;;;;;;;31.30;20.55;;;;;;;7.61;100.00;101833.69;4937954;29;20054;-71
2021/12/14 01:28:27;;;;;;;31.40;20.13;;;;;;;7.76;100.00;101831.25;4938042;29;20110;-72
2021/12/14 01:31:30;;;;;;;32.60;20.38;;;;;;;7.95;100.00;101835.81;4936767;29;20028;-71
2021/12/14 01:34:20;;;;;;;32.15;20.60;;;;;;;7.47;100.00;101827.44;4937552;29;20358;-70
2021/12/14 01:37:13;;;;;;;32.13;20.13;;;;;;;7.35;100.00;101824.66;4937564;29;20098;-71
2021/12/14 01:40:04;;;;;;;30.70;20.63;;;;;;;7.58;100.00;101828.41;4937461;29;20353;-72
2021/12/14 01:42:50;;;;;;;37.85;20.50;;;;;;;7.27;100.00;101831.50;4938048;29;20039;-72
2021/12/14 01:45:36;;;;;;;35.85;18.98;;;;;;;6.79;100.00;101831.66;4936258;29;20043;-71
2021/12/14 01:48:23;;;;;;;37.10;18.48;;;;;;;6.40;100.00;101827.53;4922545;29;20028;-72
2021/12/14 01:51:10;;;;;;;39.05;18.58;;;;;;;7.03;100.00;101833.78;4937583;29;20050;-71
2021/12/14 06:17:11;;;;;;;42.58;16.30;;;;;;;4.20;100.00;101957.63;5707090;23;20040;-71
2021/12/14 06:20:10;;;;;;;31.90;15.05;;;;;;;4.36;100.00;101954.63;4936621;29;20031;-71
2021/12/14 06:22:56;;;;;;;26.42;14.55;;;;;;;4.36;100.00;101966.69;4922674;29;20027;-72
2021/12/14 06:25:42;;;;;;;28.05;13.52;;;;;;;4.30;100.00;101959.63;4923572;29;20043;-72
2021/12/14 06:28:29;;;;;;;24.60;13.32;;;;;;;4.17;100.00;101967.91;4935553;29;20027;-71
2021/12/14 06:31:15;;;;;;;32.17;13.73;;;;;;;4.41;100.00;101966.00;4922391;29;20028;-72
2021/12/14 06:34:26;;;;;;;27.67;14.65;;;;;;;4.38;100.00;101970.22;4936016;29;20059;-72
2021/12/14 06:37:29;;;;;;;29.52;14.00;;;;;;;4.51;100.00;101973.16;4923295;29;20027;-72
2021/12/14 06:40:23;;;;;;;31.48;14.10;;;;;;;4.47;100.00;101976.50;4937151;29;20038;-72
2021/12/14 06:43:16;;;;;;;26.60;13.48;;;;;;;4.28;100.00;101971.69;4935243;29;20039;-72
2021/12/14 06:46:07;;;;;;;22.98;12.63;;;;;;;4.37;100.00;101982.31;4935797;29;20032;-73
2021/12/14 06:48:59;;;;;;;23.80;12.82;;;;;;;4.30;100.00;101984.69;4922290;29;20036;-72
2021/12/14 06:51:50;;;;;;;25.92;12.77;;;;;;;4.15;100.00;101987.72;4937369;29;20031;-71
2021/12/14 06:54:36;;;;;;;23.58;13.85;;;;;;;4.27;100.00;101985.47;4935818;29;20028;-72
2021/12/14 08:51:32;;;;;;;28.20;15.35;;;;;;;5.80;100.00;102045.72;5633399;23;20051;-72
2021/12/14 08:54:22;;;;;;;21.00;13.13;;;;;;;5.94;100.00;102040.84;4936593;29;20039;-72
2021/12/14 08:57:14;;;;;;;27.02;13.85;;;;;;;5.76;100.00;102036.09;4938191;29;20111;-72
2021/12/14 09:00:12;;;;;;;22.42;13.23;;;;;;;6.38;100.00;102034.88;4936970;29;20070;-72
2021/12/14 09:03:00;;;;;;;25.27;13.40;;;;;;;6.22;100.00;102030.22;4938502;29;20051;-71
2021/12/14 09:05:49;;;;;;;24.95;13.52;;;;;;;6.28;100.00;102022.50;4937985;29;20038;-72
2021/12/14 09:08:35;;;;;;;24.45;13.07;;;;;;;6.57;100.00;102017.03;4936959;29;20094;-71
2021/12/14 10:19:15;;;;;;;20.58;12.32;;;;;;;6.60;100.00;101983.25;5748462;23;20047;-71
2021/12/14 10:22:09;;;;;;;22.77;13.88;;;;;;;7.16;100.00;101984.25;4937244;29;20091;-72
2021/12/14 10:24:58;;;;;;;17.92;10.80;;;;;;;6.87;100.00;101988.09;4924191;29;20341;-72
2021/12/14 10:27:46;;;;;;;15.95;10.57;;;;;;;6.68;100.00;101993.81;4918577;29;20032;-73
2021/12/14 10:30:40;;;;;;;19.95;10.35;;;;;;;6.97;100.00;101988.28;4918061;29;20369;-72
2021/12/14 10:33:28;;;;;;;20.40;11.15;;;;;;;7.13;100.00;101989.38;4917186;29;20038;-72
2021/12/14 10:36:27;;;;;;;21.35;13.07;;;;;;;7.28;100.00;101989.66;4904941;29;20028;-72
2021/12/14 10:39:37;;;;;;;21.98;11.38;;;;;;;6.96;100.00;101983.91;4903703;29;20044;-72
2021/12/14 10:45:54;;;;;;;20.65;11.73;;;;;;;7.15;100.00;101985.97;4894926;29;20039;-71
2021/12/14 10:48:43;;;;;;;19.30;10.98;;;;;;;7.47;100.00;101976.06;4917342;29;20119;-72
2021/12/14 10:51:37;;;;;;;20.77;11.43;;;;;;;7.58;100.00;101970.13;4916962;29;20398;-72
2021/12/14 10:54:27;;;;;;;20.05;10.80;;;;;;;6.98;100.00;101981.31;4904532;29;20055;-71
2021/12/14 10:57:18;;;;;;;18.13;11.65;;;;;;;7.06;100.00;101979.72;4918343;29;20039;-71
2021/12/14 11:09:42;;;;;;;24.45;14.55;;;;;;;6.71;100.00;101965.22;5911664;23;20018;-72
2021/12/14 11:12:32;;;;;;;21.73;12.95;;;;;;;6.32;100.00;101967.06;4939384;29;20091;-72
2021/12/14 11:15:22;;;;;;;21.90;12.95;;;;;;;6.75;100.00;101964.44;4927475;29;20078;-72
2021/12/14 11:18:17;;;;;;;19.75;11.98;;;;;;;6.96;100.00;101957.88;4940090;29;20050;-71
2021/12/14 11:21:08;;;;;;;22.25;13.13;;;;;;;6.70;100.00;101960.84;4939639;29;20035;-71
2021/12/14 11:23:55;;;;;;;25.90;16.65;;;;;;;7.10;100.00;101956.34;4940386;29;20043;-72
2021/12/14 11:26:44;;;;;;;32.47;20.25;;;;;;;6.59;100.00;101959.78;4938673;29;20032;-72
2021/12/14 11:29:30;;;;;;;26.70;16.02;;;;;;;6.75;100.00;101964.44;4940875;29;20023;-72
2021/12/14 11:32:23;;;;;;;22.98;14.13;;;;;;;6.50;100.00;101959.59;4938740;29;20164;-72
2021/12/14 11:35:27;;;;;;;25.30;14.38;;;;;;;6.65;100.00;101962.50;4925749;29;20031;-72
2021/12/14 11:38:31;;;;;;;25.70;13.68;;;;;;;7.05;100.00;101957.13;4939024;29;20027;-72
2021/12/14 11:41:31;;;;;;;21.58;12.63;;;;;;;7.06;100.00;101962.38;4940282;29;20024;-72
2021/12/14 11:44:26;;;;;;;20.73;12.60;;;;;;;6.83;100.00;101968.03;4939849;29;20431;-71
2021/12/14 11:47:33;;;;;;;20.77;13.70;;;;;;;6.82;100.00;101966.25;4938570;29;20441;-72
2021/12/14 11:50:31;;;;;;;24.45;13.40;;;;;;;6.75;100.00;101969.63;4939258;29;20047;-73
2021/12/14 11:53:21;;;;;;;22.67;14.45;;;;;;;6.79;100.00;101977.50;4924632;29;20038;-72
2021/12/14 11:56:17;;;;;;;20.83;12.60;;;;;;;7.32;100.00;101976.66;4940163;29;20110;-71
2021/12/14 11:59:07;;;;;;;23.70;12.85;;;;;;;7.39;100.00;101967.25;4939274;29;20115;-72
2021/12/14 12:01:57;;;;;;;21.05;13.75;;;;;;;7.41;100.00;101975.94;4939613;29;20066;-73
2021/12/14 12:04:46;;;;;;;22.30;13.23;;;;;;;7.08;100.00;101978.88;4938102;29;20028;-73
2021/12/14 12:10:47;;;;;;;20.65;11.60;;;;;;;7.31;100.00;101971.47;4939868;29;20048;-71
2021/12/14 12:13:39;;;;;;;20.77;12.25;;;;;;;7.48;100.00;101973.44;4939883;29;20445;-73
2021/12/14 12:16:28;;;;;;;20.83;12.20;;;;;;;7.10;100.00;101968.47;4938119;29;20035;-74
2021/12/14 12:19:18;;;;;;;18.60;11.32;;;;;;;6.57;100.00;101974.50;4938874;28;20033;-73
2021/12/14 12:22:15;;;;;;;19.10;11.63;;;;;;;6.65;100.00;101972.91;4939642;29;20166;-72
2021/12/14 12:25:04;;;;;;;22.45;12.43;;;;;;;7.11;100.00;101959.84;4938395;29;20042;-73
2021/12/14 12:27:57;;;;;;;23.40;13.10;;;;;;;6.98;100.00;101965.69;4939540;29;20027;-72
2021/12/14 12:30:48;;;;;;;24.23;14.27;;;;;;;7.19;100.00;101951.28;4937521;29;20031;-72
2021/12/14 12:33:34;;;;;;;19.33;12.10;;;;;;;7.45;100.00;101962.09;4938977;29;20066;-72
2021/12/14 12:36:41;;;;;;;21.98;12.40;;;;;;;7.64;100.00;101956.31;4939263;29;20472;-73
2021/12/14 12:39:29;;;;;;;23.38;13.20;;;;;;;7.75;100.00;101957.31;4939632;29;20413;-73
2021/12/14 12:42:16;;;;;;;26.27;14.00;;;;;;;7.26;100.00;101949.63;4925219;29;20066;-72
2021/12/14 12:45:04;;;;;;;25.48;13.13;;;;;;;7.20;100.00;101958.22;4939587;29;20091;-72
2021/12/14 12:47:50;;;;;;;23.60;13.10;;;;;;;7.56;100.00;101957.94;4939246;28;20031;-72
2021/12/14 12:50:38;;;;;;;25.77;13.50;;;;;;;7.79;100.00;101956.50;4925829;29;20032;-73
2021/12/14 12:53:26;;;;;;;20.48;11.77;;;;;;;7.40;100.00;101950.75;4938880;29;20059;-73
2021/12/14 12:56:14;;;;;;;22.65;12.90;;;;;;;6.78;100.00;101959.25;4938568;29;20333;-72
2021/12/14 12:59:01;;;;;;;23.60;12.00;;;;;;;7.21;100.00;101959.13;4938713;29;20059;-72
2021/12/14 13:01:46;;;;;;;21.40;11.60;;;;;;;7.15;100.00;101953.81;4936898;29;20135;-73
2021/12/14 13:04:44;;;;;;;21.23;11.27;;;;;;;7.47;100.00;101952.59;4938008;29;20023;-73
2021/12/14 13:07:40;;;;;;;24.27;13.38;;;;;;;7.04;100.00;101963.19;4938317;29;20039;-72
2021/12/14 13:10:35;;;;;;;21.80;12.80;;;;;;;7.22;100.00;101951.34;4937040;29;20055;-73
2021/12/14 13:13:28;;;;;;;21.27;12.63;;;;;;;7.04;100.00;101958.88;4937192;29;20050;-72
2021/12/14 13:16:26;;;;;;;30.73;14.30;;;;;;;7.12;100.00;101961.59;4938212;29;20118;-71
2021/12/14 13:19:13;;;;;;;25.17;13.05;;;;;;;7.40;100.00;101954.19;4936554;29;20023;-72
2021/12/14 13:22:04;;;;;;;19.10;11.95;;;;;;;7.47;100.00;101955.19;4937338;29;20118;-72
2021/12/14 13:24:51;;;;;;;24.55;12.95;;;;;;;7.30;100.00;101952.31;4924647;29;20106;-71
2021/12/14 13:27:40;;;;;;;21.33;12.48;;;;;;;7.01;100.00;101968.34;4937264;29;20099;-72
2021/12/14 13:30:29;;;;;;;23.30;12.65;;;;;;;7.18;100.00;101966.88;4937587;29;20031;-74
2021/12/14 13:33:29;;;;;;;20.38;12.43;;;;;;;7.01;100.00;101957.91;4938339;29;20111;-72
2021/12/14 13:36:15;;;;;;;20.60;12.13;;;;;;;6.96;100.00;101959.59;4911671;29;20397;-74
2021/12/14 13:39:01;;;;;;;22.92;12.57;;;;;;;6.79;100.00;101953.22;4938138;29;20106;-73
2021/12/14 13:41:59;;;;;;;19.45;12.85;;;;;;;6.76;100.00;101946.22;4937857;29;20391;-73
2021/12/14 13:44:50;;;;;;;19.67;11.95;;;;;;;6.94;100.00;101948.25;4938633;28;20039;-72
2021/12/14 13:47:36;;;;;;;21.50;12.32;;;;;;;7.51;100.00;101944.81;4937616;29;20170;-73
2021/12/14 13:50:34;;;;;;;25.17;13.20;;;;;;;7.16;100.00;101940.78;4924325;29;20039;-73
2021/12/14 13:53:21;;;;;;;23.42;12.90;;;;;;;7.43;100.00;101950.78;4924172;29;20023;-73
2021/12/14 13:56:22;;;;;;;21.63;13.32;;;;;;;7.68;100.00;101952.88;4924060;29;20472;-73
2021/12/14 13:59:08;;;;;;;22.30;13.70;;;;;;;7.59;100.00;101957.97;4938118;29;20043;-72
2021/12/14 14:01:55;;;;;;;25.15;14.10;;;;;;;7.71;100.00;101958.13;4935705;29;20520;-72
2021/12/14 14:04:40;;;;;;;33.22;14.05;;;;;;;7.39;100.00;101956.81;4937905;29;20031;-72
2021/12/14 14:07:26;;;;;;;24.73;14.98;;;;;;;7.47;100.00;101961.28;4935572;29;20516;-73
2021/12/14 14:10:12;;;;;;;30.15;15.73;;;;;;;7.26;100.00;101957.47;4936275;29;20091;-73
2021/12/14 14:13:05;;;;;;;27.90;15.70;;;;;;;7.40;100.00;101963.78;4936644;29;20028;-72
2021/12/14 14:15:55;;;;;;;26.63;16.35;;;;;;;7.14;100.00;101965.06;4935940;29;20031;-75
2021/12/14 14:18:46;;;;;;;23.90;14.40;;;;;;;7.24;100.00;101967.84;4936211;29;20431;-72
2021/12/14 14:21:32;;;;;;;28.42;15.02;;;;;;;7.35;100.00;101966.31;4937780;29;20054;-71
2021/12/14 14:24:25;;;;;;;29.20;15.77;;;;;;;7.14;100.00;101962.47;4922040;29;20095;-72
2021/12/14 14:27:34;;;;;;;28.05;15.02;;;;;;;7.37;100.00;101968.94;4924172;29;20036;-72
2021/12/14 14:30:20;;;;;;;31.52;15.88;;;;;;;7.26;100.00;101975.69;4937076;29;20024;-72
2021/12/14 14:33:26;;;;;;;29.90;14.82;;;;;;;7.04;100.00;101977.09;4936614;29;20031;-72
2021/12/14 14:36:24;;;;;;;27.90;15.32;;;;;;;7.39;100.00;101970.72;4921916;29;20031;-72
2021/12/14 14:39:19;;;;;;;26.15;14.80;;;;;;;7.37;100.00;101976.75;4937802;28;20019;-72
2021/12/14 14:42:21;;;;;;;30.88;17.30;;;;;;;7.42;100.00;101969.88;4939822;29;20035;-75
2021/12/14 14:45:27;;;;;;;38.97;17.55;;;;;;;7.17;100.00;101978.16;4939990;29;20039;-72
2021/12/14 14:48:21;;;;;;;34.03;17.02;;;;;;;7.32;100.00;101981.03;4940804;29;20102;-71
2021/12/14 14:51:07;;;;;;;32.80;17.95;;;;;;;7.24;100.00;101978.28;4940448;29;20507;-73
2021/12/14 14:53:52;;;;;;;34.60;18.27;;;;;;;7.58;100.00;101982.28;4939645;29;20338;-73
2021/12/14 14:56:38;;;;;;;37.25;17.27;;;;;;;7.46;100.00;101984.72;4939072;29;20096;-73
2021/12/14 14:59:25;;;;;;;31.35;18.40;;;;;;;7.46;100.00;101988.22;4940648;29;20047;-73
2021/12/14 15:02:10;;;;;;;38.70;18.65;;;;;;;7.31;100.00;101993.16;4941215;29;20094;-74
2021/12/14 15:05:06;;;;;;;40.83;21.63;;;;;;;7.03;100.00;101996.16;4941615;29;20042;-73
2021/12/14 15:08:10;;;;;;;47.20;24.33;;;;;;;7.07;100.00;101999.72;4940017;29;20023;-72
2021/12/14 15:10:59;;;;;;;44.63;24.75;;;;;;;7.16;100.00;101995.53;4938860;29;20051;-72
2021/12/14 15:14:04;;;;;;;40.25;23.48;;;;;;;7.35;100.00;101996.72;4927034;29;20046;-73
2021/12/14 15:17:12;;;;;;;38.10;20.10;;;;;;;7.31;100.00;102000.13;4940999;29;20047;-72
2021/12/14 15:19:57;;;;;;;38.55;20.85;;;;;;;6.43;100.00;102000.25;4926403;29;20357;-72
2021/12/14 15:22:59;;;;;;;38.40;21.35;;;;;;;6.67;100.00;102005.06;4939431;29;20130;-73
2021/12/14 15:25:44;;;;;;;40.03;21.08;;;;;;;7.14;100.00;102004.16;4939163;29;20119;-72
2021/12/14 15:28:30;;;;;;;40.42;18.45;;;;;;;6.92;100.00;102009.88;4942069;29;20031;-71
2021/12/14 15:31:17;;;;;;;28.83;16.77;;;;;;;7.05;100.00;102017.94;4926359;29;20047;-73
2021/12/14 15:34:02;;;;;;;26.35;15.05;;;;;;;6.86;100.00;102015.84;4939391;29;20035;-72
2021/12/14 15:36:48;;;;;;;28.13;15.65;;;;;;;6.84;100.00;102011.47;4939866;29;20036;-72
2021/12/14 15:39:38;;;;;;;26.27;15.55;;;;;;;7.12;100.00;102004.13;4940089;29;20032;-73
2021/12/14 15:42:24;;;;;;;27.65;16.25;;;;;;;7.40;100.00;102008.09;4938823;29;20024;-73
2021/12/14 15:45:12;;;;;;;28.20;15.65;;;;;;;7.18;100.00;102017.28;4940069;29;20036;-73
2021/12/14 15:48:27;;;;;;;28.35;16.45;;;;;;;6.64;100.00;102023.25;4939972;29;20039;-72
2021/12/14 15:51:27;;;;;;;30.35;16.98;;;;;;;7.08;100.00;102019.72;4909284;29;20031;-72
2021/12/14 15:54:15;;;;;;;25.75;15.70;;;;;;;7.15;100.00;102026.81;4939171;29;20027;-74
2021/12/14 15:57:12;;;;;;;28.38;16.25;;;;;;;6.72;100.00;102019.94;4938667;29;20516;-72
2021/12/14 16:00:03;;;;;;;31.67;16.80;;;;;;;6.86;100.00;102030.59;4940122;29;20051;-72
2021/12/14 16:02:49;;;;;;;25.05;15.18;;;;;;;7.19;100.00;102020.78;4940502;29;20023;-72
2021/12/14 16:05:35;;;;;;;27.10;16.35;;;;;;;7.28;100.00;102020.94;4938169;29;20368;-73
2021/12/14 16:08:24;;;;;;;30.65;17.63;;;;;;;7.30;100.00;102029.63;4939540;29;20043;-73
2021/12/14 16:17:18;;;;;;;32.13;18.50;;;;;;;6.86;100.00;102039.28;4939739;29;20028;-72
2021/12/14 16:20:07;;;;;;;41.80;22.38;;;;;;;6.70;100.00;102050.28;4938156;29;20028;-72
2021/12/14 16:22:55;;;;;;;43.25;23.90;;;;;;;6.34;100.00;102048.69;4926238;29;20038;-71
2021/12/14 16:25:46;;;;;;;42.28;23.38;;;;;;;6.39;100.00;102052.25;4939359;29;20456;-72
2021/12/14 16:28:35;;;;;;;41.15;23.17;;;;;;;6.36;100.00;102050.47;4937875;29;20035;-73
2021/12/14 16:31:27;;;;;;;44.22;22.95;;;;;;;6.58;100.00;102050.03;4938452;29;20032;-72
2021/12/14 16:34:18;;;;;;;39.85;21.13;;;;;;;6.59;100.00;102050.91;4939410;29;20055;-73
2021/12/14 16:37:05;;;;;;;43.88;22.33;;;;;;;6.47;100.00;102043.72;4938756;29;20457;-72
2021/12/14 16:39:51;;;;;;;39.42;21.35;;;;;;;6.16;100.00;102048.28;4938203;29;20342;-71
2021/12/14 16:42:38;;;;;;;38.55;22.02;;;;;;;6.28;100.00;102048.53;4938160;29;20047;-72
2021/12/14 16:45:24;;;;;;;43.40;23.52;;;;;;;6.74;100.00;102048.59;4924672;29;20035;-73
2021/12/14 16:48:10;;;;;;;39.67;21.77;;;;;;;6.52;100.00;102054.25;4938907;29;20027;-73
2021/12/14 16:50:59;;;;;;;39.08;22.20;;;;;;;6.69;100.00;102055.44;4938639;29;20043;-73
2021/12/14 16:53:49;;;;;;;35.67;21.13;;;;;;;6.42;100.00;102057.50;4938692;29;20038;-73
2021/12/14 16:56:36;;;;;;;40.47;22.95;;;;;;;7.18;100.00;102065.91;4937505;29;20122;-72
2021/12/14 16:59:29;;;;;;;42.67;25.75;;;;;;;6.73;100.00;102065.06;4925312;29;20074;-73
2021/12/14 17:02:19;;;;;;;42.80;23.35;;;;;;;6.55;100.00;102070.78;4938468;29;20098;-72
2021/12/14 17:05:11;;;;;;;51.47;24.88;;;;;;;6.67;100.00;102067.56;4937603;29;20028;-72
2021/12/14 17:08:01;;;;;;;45.28;22.90;;;;;;;6.25;100.00;102069.28;4937745;29;20101;-72
2021/12/14 17:10:54;;;;;;;45.30;22.90;;;;;;;6.32;100.00;102065.97;4924744;29;20094;-73
2021/12/14 17:13:49;;;;;;;46.15;23.13;;;;;;;6.28;100.00;102059.84;4938330;29;20074;-72
2021/12/14 17:16:41;;;;;;;51.25;24.00;;;;;;;6.15;100.00;102051.72;4937777;29;20034;-73
2021/12/14 17:19:27;;;;;;;48.67;24.80;;;;;;;6.37;100.00;102059.13;4924672;29;20031;-73
2021/12/14 17:22:21;;;;;;;53.60;25.13;;;;;;;6.72;100.00;102060.72;4938465;29;20038;-72
2021/12/14 17:25:14;;;;;;;53.35;24.38;;;;;;;6.22;100.00;102059.69;4924348;29;20178;-72
2021/12/14 17:28:00;;;;;;;48.65;23.83;;;;;;;6.26;100.00;102068.47;4936953;29;20058;-72
2021/12/14 17:30:51;;;;;;;52.30;23.42;;;;;;;6.00;100.00;102056.59;4937573;29;20063;-73
2021/12/14 17:33:40;;;;;;;44.28;21.25;;;;;;;6.23;100.00;102060.56;4938219;29;20042;-72
2021/12/14 17:36:30;;;;;;;45.97;22.52;;;;;;;6.31;100.00;102064.22;4937415;29;20038;-73
2021/12/14 17:39:30;;;;;;;51.17;23.50;;;;;;;6.11;100.00;102052.50;4936319;29;20028;-71
2021/12/14 17:42:21;;;;;;;46.47;23.38;;;;;;;6.62;100.00;102057.06;4936952;29;20365;-72
2021/12/14 17:45:20;;;;;;;45.05;22.52;;;;;;;6.45;100.00;102066.25;4936815;29;20066;-73
2021/12/14 17:48:07;;;;;;;38.88;21.33;;;;;;;6.67;100.00;102059.75;4936162;29;20036;-72
2021/12/14 17:51:04;;;;;;;46.60;24.63;;;;;;;6.84;100.00;102063.56;4938226;29;20032;-72
2021/12/14 17:53:50;;;;;;;41.63;21.42;;;;;;;6.41;100.00;102063.56;4924243;29;20118;-72
2021/12/14 17:56:36;;;;;;;49.22;23.58;;;;;;;6.59;100.00;102062.19;4936649;29;20500;-73
2021/12/14 17:59:41;;;;;;;43.40;22.95;;;;;;;6.73;100.00;102065.97;4936049;29;20169;-73
2021/12/14 18:02:34;;;;;;;42.50;20.92;;;;;;;6.69;100.00;102055.44;4937636;29;20039;-73
2021/12/14 18:05:24;;;;;;;39.70;22.00;;;;;;;6.66;100.00;102061.47;4922848;29;20031;-71
2021/12/14 18:08:13;;;;;;;41.15;22.08;;;;;;;6.52;100.00;102065.56;4936065;29;20024;-72
2021/12/14 18:11:05;;;;;;;40.92;21.67;;;;;;;6.65;100.00;102062.34;4937544;29;20055;-72
2021/12/14 18:14:07;;;;;;;44.35;22.65;;;;;;;6.76;100.00;102054.72;4936573;29;20468;-73
2021/12/14 18:17:01;;;;;;;37.55;21.30;;;;;;;6.87;100.00;102067.09;4937780;29;20047;-72
2021/12/14 18:19:48;;;;;;;41.45;21.52;;;;;;;6.34;100.00;102062.56;4937217;29;20416;-73
2021/12/14 18:22:36;;;;;;;37.58;20.60;;;;;;;6.29;100.00;102060.69;4924722;29;20093;-74
2021/12/14 18:25:22;;;;;;;40.15;20.83;;;;;;;6.19;100.00;102058.75;4937234;29;20110;-72
2021/12/14 18:28:12;;;;;;;40.03;20.77;;;;;;;6.27;100.00;102054.59;4936929;29;20499;-73
2021/12/14 18:30:59;;;;;;;39.38;21.70;;;;;;;6.33;100.00;102062.50;4937672;29;20036;-73
2021/12/14 18:34:02;;;;;;;33.22;20.05;;;;;;;6.46;100.00;102059.31;4936045;29;20023;-73
2021/12/14 18:36:54;;;;;;;37.72;22.30;;;;;;;6.43;100.00;102067.94;4922628;29;20066;-72
2021/12/14 18:39:46;;;;;;;38.95;20.33;;;;;;;6.56;100.00;102075.19;4923915;29;20023;-72
2021/12/14 18:42:35;;;;;;;38.72;20.70;;;;;;;6.41;100.00;102066.16;4936609;29;20031;-75
2021/12/14 18:45:22;;;;;;;37.72;21.70;;;;;;;6.71;100.00;102057.22;4936673;29;20118;-73
2021/12/14 18:51:15;;;;;;;38.83;22.02;;;;;;;6.77;100.00;102061.69;4938253;29;20453;-72
2021/12/14 18:54:06;;;;;;;44.00;21.88;;;;;;;6.43;100.00;102059.28;4936157;29;20035;-73
2021/12/14 18:56:59;;;;;;;41.80;23.02;;;;;;;6.33;100.00;102063.41;4936131;29;20035;-74
2021/12/14 18:59:58;;;;;;;39.13;21.10;;;;;;;6.76;100.00;102060.81;4935322;29;20107;-73
2021/12/14 19:02:44;;;;;;;39.03;22.25;;;;;;;6.41;100.00;102054.03;4935559;29;20035;-72
2021/12/14 19:05:34;;;;;;;47.55;24.92;;;;;;;6.39;100.00;102053.09;4936852;29;20074;-72
2021/12/14 19:08:22;;;;;;;37.25;21.55;;;;;;;6.69;100.00;102064.16;4937229;29;20099;-73
2021/12/14 19:11:12;;;;;;;40.22;21.83;;;;;;;6.41;100.00;102066.16;4935231;29;20509;-72
2021/12/14 19:14:03;;;;;;;42.15;23.20;;;;;;;6.47;100.00;102061.09;4936205;29;20102;-73
2021/12/14 19:16:53;;;;;;;39.03;21.80;;;;;;;6.65;100.00;102056.22;4936104;29;20047;-72
2021/12/14 19:19:39;;;;;;;37.05;21.58;;;;;;;6.70;100.00;102058.09;4936112;29;20020;-73
2021/12/14 19:22:25;;;;;;;38.10;21.95;;;;;;;6.95;100.00;102046.41;4923562;29;20024;-72
2021/12/14 19:25:17;;;;;;;33.22;19.80;;;;;;;6.80;100.00;102048.72;4936485;29;20059;-73
2021/12/14 19:28:13;;;;;;;46.03;23.90;;;;;;;6.52;100.00;102044.72;4938094;29;20039;-73
2021/12/14 19:31:11;;;;;;;46.58;25.70;;;;;;;6.34;100.00;102049.53;4940203;29;20119;-73
2021/12/14 19:34:00;;;;;;;47.55;26.60;;;;;;;5.94;100.00;102041.72;4940578;29;20101;-74
2021/12/14 19:36:49;;;;;;;42.47;24.10;;;;;;;6.65;100.00;102044.09;4938846;29;20043;-72
2021/12/14 19:39:36;;;;;;;33.60;20.40;;;;;;;6.48;100.00;102040.31;4926416;29;20090;-72
2021/12/14 19:42:27;;;;;;;33.65;18.38;;;;;;;6.71;100.00;102045.94;4926268;29;20123;-73
2021/12/14 19:45:13;;;;;;;32.40;18.33;;;;;;;6.36;100.00;102039.16;4927426;29;20510;-73
2021/12/14 21:41:10;;;;;;;39.10;21.45;;;;;;;7.31;100.00;102042.69;5359873;23;20056;-72
2021/12/14 21:46:56;;;;;;;34.13;20.10;;;;;;;7.13;100.00;102058.03;4924012;29;20376;-72
2021/12/14 21:49:46;;;;;;;37.25;20.65;;;;;;;6.50;100.00;102061.13;4935819;29;20024;-72
2021/12/14 21:52:33;;;;;;;35.55;21.10;;;;;;;6.52;100.00;102067.25;4924473;29;20034;-72
2021/12/14 21:58:45;;;;;;;41.35;23.92;;;;;;;6.80;100.00;102073.06;4936152;29;20028;-72
2021/12/14 22:01:31;;;;;;;42.05;23.42;;;;;;;6.68;100.00;102070.22;4937494;29;20042;-72
2021/12/14 22:04:19;;;;;;;42.58;24.17;;;;;;;6.85;100.00;102071.41;4937823;29;20031;-73
2021/12/14 22:07:09;;;;;;;38.03;21.95;;;;;;;6.84;100.00;102069.66;4936303;29;20032;-71
2021/12/14 22:09:55;;;;;;;37.13;22.15;;;;;;;7.12;100.00;102065.81;4936626;29;20062;-72
2021/12/14 22:12:43;;;;;;;40.72;22.45;;;;;;;6.47;100.00;102056.75;4937452;29;20042;-72
2021/12/14 22:15:37;;;;;;;37.45;20.77;;;;;;;6.96;100.00;102056.88;4937237;29;20047;-72
2021/12/14 22:18:25;;;;;;;38.65;21.98;;;;;;;6.76;100.00;102053.00;4935642;29;20119;-73
2021/12/14 22:21:11;;;;;;;43.03;23.83;;;;;;;6.49;100.00;102046.38;4937368;29;20108;-73
2021/12/14 22:23:58;;;;;;;38.67;22.13;;;;;;;7.02;100.00;102037.84;4937738;29;20069;-73
2021/12/14 22:26:43;;;;;;;39.58;21.60;;;;;;;6.45;100.00;102029.81;4937932;29;20137;-73
2021/12/14 22:29:29;;;;;;;41.65;21.27;;;;;;;6.65;100.00;102038.91;4936213;29;20035;-73
2021/12/14 22:32:16;;;;;;;43.92;23.60;;;;;;;6.15;100.00;102020.50;4937581;29;20027;-72
2021/12/14 22:35:04;;;;;;;39.50;21.42;;;;;;;5.87;100.00;102012.94;4936257;29;20027;-72
2021/12/14 22:37:50;;;;;;;38.75;22.90;;;;;;;6.58;100.00;102016.19;4936646;29;20114;-72
2021/12/14 22:46:44;;;;;;;43.55;24.83;;;;;;;6.15;100.00;102015.31;4937783;29;20024;-73
2021/12/14 22:49:32;;;;;;;43.70;25.08;;;;;;;6.85;100.00;102018.41;4935694;29;20038;-73
2021/12/14 22:52:29;;;;;;;44.42;24.98;;;;;;;6.61;100.00;102028.38;4922078;29;20032;-73
2021/12/14 22:55:21;;;;;;;44.92;23.95;;;;;;;6.33;100.00;102028.69;4923402;29;20050;-72
2021/12/14 22:58:10;;;;;;;41.08;23.40;;;;;;;6.18;100.00;102029.25;4937237;29;20043;-73
2021/12/14 23:01:07;;;;;;;43.17;24.48;;;;;;;6.87;100.00;102028.00;4937030;29;20135;-72
2021/12/14 23:03:54;;;;;;;44.08;23.65;;;;;;;6.86;100.00;102027.97;4940370;29;20047;-72
2021/12/14 23:06:40;;;;;;;41.00;22.13;;;;;;;6.63;100.00;102026.69;4940595;29;20028;-73
2021/12/14 23:09:37;;;;;;;38.38;22.05;;;;;;;6.54;100.00;102021.28;4940744;29;20042;-72
2021/12/14 23:12:46;;;;;;;39.83;23.00;;;;;;;6.54;100.00;102034.31;4939365;29;20041;-73
2021/12/14 23:15:47;;;;;;;45.38;22.70;;;;;;;6.35;100.00;102029.59;4914391;29;20028;-72
2021/12/14 23:18:36;;;;;;;40.83;23.02;;;;;;;6.39;100.00;102021.00;4939933;29;20028;-71
2021/12/14 23:21:25;;;;;;;44.55;24.58;;;;;;;6.46;100.00;102015.94;4939984;29;20020;-73
2021/12/14 23:24:11;;;;;;;41.13;23.05;;;;;;;6.71;100.00;102014.69;4940388;29;20043;-73
2021/12/14 23:26:57;;;;;;;42.00;22.60;;;;;;;6.34;100.00;102007.03;4940453;29;20114;-73
2021/12/14 23:29:43;;;;;;;41.35;22.52;;;;;;;6.33;100.00;101989.63;4939798;29;20038;-72
2021/12/14 23:32:29;;;;;;;43.53;22.27;;;;;;;6.15;100.00;101991.88;4939878;29;20046;-73
2021/12/14 23:35:17;;;;;;;40.88;22.98;;;;;;;6.45;100.00;102002.91;4939906;29;20039;-74
2021/12/14 23:38:05;;;;;;;73.95;36.97;;;;;;;6.54;100.00;102011.75;4940247;29;20068;-73
2021/12/14 23:40:51;;;;;;;40.78;23.42;;;;;;;6.56;100.00;102011.78;4938711;29;20059;-73
